Terminal Aerodrome Forecast
Issued by NWS

Home | Current Version | Previous Version | Text Only | Print | Product List | Glossary Off
Versions: 1 2 3 4 5 6 7 8 9 10 11 12 13 14 15 16 17 18 19 20 21 22

000
FTUS43 KTOP 262000 AAA
TAFMHK
TAF AMD
KMHK 262006Z 2620/2718 10009KT P6SM SCT070
     FM262300 13005KT P6SM VCTS BKN050CB
     FM270200 15006KT P6SM BKN060=

USA.gov is the U.S. government's official web portal to all federal, state and local government web resources and services.